Decoded Metar for PAYA (YAKUTAT in AK, USA) (IATA:YAK) | Meteo·Mobile Aviation Weather
aviador You're here:

PAYA Decoded Metar

YAKUTAT in AK, USA
Report Time2018-12-19 04:53:00
UTC Time2018-12-19 05:58:48
Flight Rules vfr VFR
WindCalm
Visibility9999 m
Phenomena:N/A
Clouds:Overcast 055 Hf
Ceiling5,500 ft
Temp01°C (ISA -14)
Dew Point01°C (100% RH)
AAT-0.8°C
QNH981 hPa
Density Alt-466 ft
Elevation36 ft
Report Wrong Elevation
Raw Report
PAYA 190453Z AUTO 00000KT 9SM OVC055 01/01 A2898 RMK AO2 SLP813
T00110006 TSNO=

Extra information for PAYA:More info

Metar Taf Metar & Taf Last 4 Metars F.Rules Stats Wind Profile Meteogram Temp Stats Airport Information Weather charts Add Link Nearby VenuesMetar ALERT Operation Metar Decoded Social comments

AIRNAV info for PAYA